Time;durP1;ratioP1;P1;durP2;ratioP2;P2;SDS_P1;SDS_P2;PMS_P1;PMS_P2;Temp;Humidity;BMP_temperature;BMP_pressure;BME280_temperature;BME280_humidity;BME280_pressure;Samples;Min_cycle;Max_cycle;Signal;HPM_P1;HPM_P2
2022/02/20 00:00:56;;;;;;;6.80;2.00;;;;;;;;;;5039291;28;20411;-81
2022/02/20 00:03:22;;;;;;;6.17;2.00;;;;;;;;;;5039159;28;20406;-80
2022/02/20 00:05:48;;;;;;;6.27;2.17;;;;;;;;;;5039819;28;20923;-80
2022/02/20 00:08:15;;;;;;;6.90;2.33;;;;;;;;;;5039502;28;20449;-79
2022/02/20 00:10:41;;;;;;;9.20;2.10;;;;;;;;;;5039906;28;20485;-79
2022/02/20 00:13:09;;;;;;;3.03;2.10;;;;;;;;;;5039342;28;20462;-79
2022/02/20 00:15:35;;;;;;;5.57;2.07;;;;;;;;;;5038782;28;20553;-80
2022/02/20 00:18:03;;;;;;;12.70;2.90;;;;;;;;;;5037258;28;20403;-80
2022/02/20 00:20:30;;;;;;;10.50;2.00;;;;;;;;;;5038767;28;20406;-79
2022/02/20 00:22:56;;;;;;;4.63;2.27;;;;;;;;;;5039657;28;20861;-79
2022/02/20 00:25:24;;;;;;;6.67;2.50;;;;;;;;;;5037579;28;20410;-79
2022/02/20 00:27:50;;;;;;;6.83;1.90;;;;;;;;;;5039000;28;20549;-78
2022/02/20 00:30:17;;;;;;;2.63;1.60;;;;;;;;;;5038707;28;20482;-78
2022/02/20 00:32:43;;;;;;;6.50;2.33;;;;;;;;;;5038253;28;20433;-79
2022/02/20 00:35:09;;;;;;;4.40;1.80;;;;;;;;;;5041901;28;20407;-81
2022/02/20 00:37:35;;;;;;;8.50;1.90;;;;;;;;;;5042466;28;20937;-79
2022/02/20 00:40:03;;;;;;;6.13;2.23;;;;;;;;;;5042849;28;20442;-82
2022/02/20 00:42:29;;;;;;;4.63;2.20;;;;;;;;;;5042379;28;20468;-79
2022/02/20 00:44:55;;;;;;;4.60;2.03;;;;;;;;;;5042732;28;20421;-79
2022/02/20 00:47:21;;;;;;;2.37;1.47;;;;;;;;;;5042629;28;20450;-79
2022/02/20 00:49:47;;;;;;;4.40;1.80;;;;;;;;;;5042990;28;20610;-80
2022/02/20 00:52:13;;;;;;;3.80;1.90;;;;;;;;;;5042169;28;20887;-79
2022/02/20 00:54:39;;;;;;;2.80;1.40;;;;;;;;;;5042015;28;20407;-79
2022/02/20 00:57:05;;;;;;;6.80;1.90;;;;;;;;;;5042166;28;20506;-78
2022/02/20 00:59:31;;;;;;;5.90;2.00;;;;;;;;;;5042092;28;20403;-80
2022/02/20 01:01:57;;;;;;;4.10;1.50;;;;;;;;;;5042548;28;20401;-79
2022/02/20 01:04:26;;;;;;;3.00;1.70;;;;;;;;;;5042447;28;20406;-79
2022/02/20 01:06:53;;;;;;;4.60;1.90;;;;;;;;;;5041930;28;20415;-79
2022/02/20 01:09:19;;;;;;;1.87;1.20;;;;;;;;;;5042408;28;20477;-80
2022/02/20 01:11:45;;;;;;;2.20;1.57;;;;;;;;;;5041717;28;20406;-80
2022/02/20 01:14:11;;;;;;;5.20;1.73;;;;;;;;;;5041795;28;20390;-79
2022/02/20 01:16:37;;;;;;;2.80;1.43;;;;;;;;;;5042222;28;20430;-80
2022/02/20 01:19:03;;;;;;;3.10;1.50;;;;;;;;;;5041391;28;20425;-78
2022/02/20 01:21:29;;;;;;;6.93;2.77;;;;;;;;;;5041925;28;20422;-80
2022/02/20 01:23:55;;;;;;;4.23;2.17;;;;;;;;;;5040347;28;20403;-81
2022/02/20 01:26:21;;;;;;;5.03;1.87;;;;;;;;;;5041412;28;20462;-79
2022/02/20 01:28:47;;;;;;;3.70;1.60;;;;;;;;;;5042305;28;20462;-79
2022/02/20 01:31:14;;;;;;;7.57;2.13;;;;;;;;;;5041561;28;20789;-80
2022/02/20 01:33:40;;;;;;;5.47;1.87;;;;;;;;;;5041896;28;20833;-79
2022/02/20 01:36:06;;;;;;;4.60;1.70;;;;;;;;;;5041158;28;20461;-79
2022/02/20 01:38:32;;;;;;;3.33;1.40;;;;;;;;;;5040161;28;20421;-79
2022/02/20 01:40:58;;;;;;;5.00;1.60;;;;;;;;;;5041618;28;20419;-80
2022/02/20 01:43:24;;;;;;;4.43;1.97;;;;;;;;;;5041117;28;20406;-80
2022/02/20 01:45:50;;;;;;;3.33;1.20;;;;;;;;;;5040137;28;20434;-80
2022/02/20 01:48:17;;;;;;;4.40;1.87;;;;;;;;;;5041252;28;20512;-80
2022/02/20 01:50:43;;;;;;;4.53;1.70;;;;;;;;;;5041959;28;20417;-80
2022/02/20 01:53:09;;;;;;;5.50;1.60;;;;;;;;;;5041253;28;20402;-80
2022/02/20 01:55:36;;;;;;;7.00;1.60;;;;;;;;;;5042071;28;20461;-78
2022/02/20 01:58:02;;;;;;;3.07;1.13;;;;;;;;;;5042327;28;20399;-78
2022/02/20 02:00:29;;;;;;;8.90;1.73;;;;;;;;;;5043140;28;20403;-79
2022/02/20 02:02:55;;;;;;;5.40;1.50;;;;;;;;;;5041263;28;20410;-80
2022/02/20 02:05:22;;;;;;;3.90;1.80;;;;;;;;;;5040464;28;20414;-79
2022/02/20 02:07:51;;;;;;;11.50;1.63;;;;;;;;;;5025845;28;20458;-79
2022/02/20 02:10:17;;;;;;;4.10;1.60;;;;;;;;;;5029200;28;20438;-80
2022/02/20 02:12:44;;;;;;;6.53;2.00;;;;;;;;;;5020609;28;20442;-79
2022/02/20 02:15:11;;;;;;;3.17;1.60;;;;;;;;;;5021445;28;20915;-79
2022/02/20 02:17:37;;;;;;;3.60;1.47;;;;;;;;;;5021145;28;20408;-80
2022/02/20 02:20:04;;;;;;;5.13;1.70;;;;;;;;;;5021397;28;20457;-79
2022/02/20 02:22:30;;;;;;;2.43;1.47;;;;;;;;;;5021121;28;20406;-80
2022/02/20 02:24:57;;;;;;;4.20;2.10;;;;;;;;;;5020849;28;20419;-80
2022/02/20 02:27:23;;;;;;;2.63;1.50;;;;;;;;;;5021261;28;20470;-80
2022/02/20 02:29:50;;;;;;;2.50;1.20;;;;;;;;;;5021162;28;20442;-80
2022/02/20 02:32:17;;;;;;;1.83;1.10;;;;;;;;;;5020639;28;20496;-79
2022/02/20 02:34:43;;;;;;;1.87;1.13;;;;;;;;;;5021098;28;20408;-79
2022/02/20 02:37:10;;;;;;;2.27;1.57;;;;;;;;;;5021429;28;20454;-80
2022/02/20 02:39:36;;;;;;;4.63;1.93;;;;;;;;;;5021600;28;20407;-78
2022/02/20 02:42:03;;;;;;;2.77;1.40;;;;;;;;;;5029895;28;20399;-79
2022/02/20 02:44:29;;;;;;;3.90;1.40;;;;;;;;;;5031410;28;20395;-77
2022/02/20 02:46:55;;;;;;;3.63;1.43;;;;;;;;;;5031696;28;20464;-78
2022/02/20 02:49:21;;;;;;;2.87;1.40;;;;;;;;;;5031643;28;20455;-78
2022/02/20 02:51:47;;;;;;;5.70;1.37;;;;;;;;;;5031278;28;20430;-78
2022/02/20 02:54:17;;;;;;;4.60;1.40;;;;;;;;;;5028784;28;20443;-78
2022/02/20 02:56:44;;;;;;;4.10;1.40;;;;;;;;;;5032304;28;20447;-78
2022/02/20 02:59:10;;;;;;;4.87;2.43;;;;;;;;;;5037035;28;20419;-77
2022/02/20 03:01:36;;;;;;;6.23;2.00;;;;;;;;;;5031356;28;20403;-79
2022/02/20 03:04:02;;;;;;;1.97;1.33;;;;;;;;;;5023409;28;20493;-79
2022/02/20 03:06:28;;;;;;;4.10;1.73;;;;;;;;;;5021593;28;20430;-80
2022/02/20 03:08:54;;;;;;;2.20;1.40;;;;;;;;;;5021336;28;20494;-80
2022/02/20 03:11:20;;;;;;;2.93;1.40;;;;;;;;;;5021579;28;20407;-79
2022/02/20 03:13:46;;;;;;;2.33;1.40;;;;;;;;;;5021331;28;20399;-79
2022/02/20 03:16:12;;;;;;;5.57;1.40;;;;;;;;;;5021256;28;20435;-80
2022/02/20 03:18:39;;;;;;;2.40;1.27;;;;;;;;;;5018733;28;20411;-80
2022/02/20 03:21:07;;;;;;;3.40;1.47;;;;;;;;;;5020029;28;20419;-79
2022/02/20 03:23:33;;;;;;;3.10;1.27;;;;;;;;;;5020449;28;20467;-80
2022/02/20 03:25:59;;;;;;;2.40;1.20;;;;;;;;;;5019139;28;20974;-80
2022/02/20 03:28:25;;;;;;;2.97;1.33;;;;;;;;;;5019586;28;20870;-80
2022/02/20 03:30:52;;;;;;;1.90;1.30;;;;;;;;;;5019664;28;20403;-82
2022/02/20 03:33:19;;;;;;;2.03;1.20;;;;;;;;;;5020291;28;20408;-78
2022/02/20 03:35:45;;;;;;;3.10;1.53;;;;;;;;;;5016713;28;20987;-78
2022/02/20 03:38:12;;;;;;;7.07;1.80;;;;;;;;;;5026219;28;20479;-79
2022/02/20 03:40:38;;;;;;;3.10;1.67;;;;;;;;;;5030977;28;20422;-79
2022/02/20 03:43:05;;;;;;;2.10;1.60;;;;;;;;;;5039131;28;20492;-79
2022/02/20 03:45:31;;;;;;;2.83;1.50;;;;;;;;;;5021437;28;20458;-79
2022/02/20 03:47:57;;;;;;;5.70;2.00;;;;;;;;;;5037375;28;20464;-80
2022/02/20 03:50:25;;;;;;;2.80;1.30;;;;;;;;;;5039474;28;20903;-79
2022/02/20 03:52:51;;;;;;;4.77;1.70;;;;;;;;;;5039412;28;20441;-79
2022/02/20 03:55:17;;;;;;;2.30;1.50;;;;;;;;;;5039505;28;20413;-79
2022/02/20 03:57:43;;;;;;;2.40;1.40;;;;;;;;;;5038947;28;20436;-79
2022/02/20 04:00:11;;;;;;;4.03;1.57;;;;;;;;;;5038896;28;20407;-79
2022/02/20 04:02:40;;;;;;;3.40;1.90;;;;;;;;;;5039136;28;20443;-79
2022/02/20 04:05:10;;;;;;;6.10;1.83;;;;;;;;;;5038804;28;20413;-79
2022/02/20 04:07:37;;;;;;;1.87;1.33;;;;;;;;;;5037997;28;20457;-78
2022/02/20 04:10:07;;;;;;;2.33;1.27;;;;;;;;;;5039065;28;20411;-79
2022/02/20 04:12:33;;;;;;;6.57;2.20;;;;;;;;;;5039071;28;20429;-79
2022/02/20 04:15:00;;;;;;;2.50;1.60;;;;;;;;;;5037580;28;20414;-79
2022/02/20 04:17:26;;;;;;;1.90;1.13;;;;;;;;;;5038942;28;20427;-79
2022/02/20 04:19:53;;;;;;;2.60;1.50;;;;;;;;;;5038594;28;20410;-79
2022/02/20 04:22:19;;;;;;;7.30;1.60;;;;;;;;;;5038816;28;20413;-79
2022/02/20 04:24:45;;;;;;;3.17;1.87;;;;;;;;;;5031308;28;20427;-78
2022/02/20 04:27:11;;;;;;;3.20;1.67;;;;;;;;;;5035577;28;20461;-78
2022/02/20 04:29:37;;;;;;;6.07;1.87;;;;;;;;;;5038850;28;20411;-81
2022/02/20 04:32:04;;;;;;;4.33;1.57;;;;;;;;;;5036517;28;20460;-80
2022/02/20 04:34:30;;;;;;;2.57;1.23;;;;;;;;;;5038767;28;20409;-81
2022/02/20 04:36:56;;;;;;;2.00;1.20;;;;;;;;;;5037893;28;20922;-80
2022/02/20 04:39:22;;;;;;;3.13;1.50;;;;;;;;;;5038812;28;20751;-79
2022/02/20 04:41:48;;;;;;;2.53;1.40;;;;;;;;;;5038860;28;20461;-80
2022/02/20 04:44:14;;;;;;;2.43;1.33;;;;;;;;;;5038646;28;20437;-81
2022/02/20 04:46:40;;;;;;;4.50;1.63;;;;;;;;;;5048251;28;20459;-80
2022/02/20 04:49:07;;;;;;;3.20;1.40;;;;;;;;;;5039067;28;20446;-80
2022/02/20 04:51:34;;;;;;;2.43;1.40;;;;;;;;;;5038383;28;20403;-80
2022/02/20 04:54:00;;;;;;;6.00;1.33;;;;;;;;;;5039376;28;20405;-80
2022/02/20 04:56:27;;;;;;;5.07;1.60;;;;;;;;;;5037434;28;20517;-79
2022/02/20 04:58:53;;;;;;;2.83;1.40;;;;;;;;;;5038431;28;20403;-80
2022/02/20 05:01:19;;;;;;;3.40;1.27;;;;;;;;;;5036892;28;20413;-80
2022/02/20 05:03:46;;;;;;;2.83;1.70;;;;;;;;;;5038751;28;20478;-79
2022/02/20 05:06:13;;;;;;;2.37;1.43;;;;;;;;;;5038865;28;20430;-81
2022/02/20 05:08:39;;;;;;;6.13;1.50;;;;;;;;;;5039405;28;20438;-81
2022/02/20 05:11:05;;;;;;;3.03;1.87;;;;;;;;;;5038195;28;20410;-81
2022/02/20 05:13:31;;;;;;;6.83;2.13;;;;;;;;;;5038986;28;20481;-81
2022/02/20 05:15:57;;;;;;;4.60;1.60;;;;;;;;;;5038974;28;20516;-81
2022/02/20 05:18:23;;;;;;;4.93;1.40;;;;;;;;;;5038049;28;20406;-80
2022/02/20 05:20:54;;;;;;;3.73;1.27;;;;;;;;;;5040125;28;20395;-80
2022/02/20 05:23:24;;;;;;;6.93;1.47;;;;;;;;;;5040935;28;20414;-80
2022/02/20 05:25:51;;;;;;;3.90;1.47;;;;;;;;;;5064465;23;20735;-77
2022/02/20 05:28:17;;;;;;;5.20;1.50;;;;;;;;;;5053753;28;20553;-76
2022/02/20 05:30:43;;;;;;;2.10;1.43;;;;;;;;;;5056013;28;20417;-76
2022/02/20 05:33:09;;;;;;;3.33;1.57;;;;;;;;;;5056350;28;20408;-77
2022/02/20 05:35:35;;;;;;;2.70;1.80;;;;;;;;;;5056286;28;20443;-77
2022/02/20 05:38:01;;;;;;;3.63;1.40;;;;;;;;;;5055991;28;20401;-76
2022/02/20 05:40:27;;;;;;;1.70;1.40;;;;;;;;;;5055891;28;20462;-76
2022/02/20 05:42:57;;;;;;;2.97;1.47;;;;;;;;;;5055838;28;20405;-76
2022/02/20 05:45:23;;;;;;;5.87;2.27;;;;;;;;;;5055707;28;20401;-77
2022/02/20 05:47:49;;;;;;;3.73;1.40;;;;;;;;;;5056045;28;20465;-77
2022/02/20 05:50:15;;;;;;;6.07;2.10;;;;;;;;;;5054454;28;20401;-77
2022/02/20 05:52:41;;;;;;;2.77;1.50;;;;;;;;;;5055834;28;20393;-77
2022/02/20 05:55:09;;;;;;;5.10;2.07;;;;;;;;;;5055565;28;20394;-77
2022/02/20 05:57:49;;;;;;;3.83;1.40;;;;;;;;;;5055691;28;20422;-77
2022/02/20 06:00:16;;;;;;;2.10;1.50;;;;;;;;;;5055464;28;20409;-76
2022/02/20 06:02:42;;;;;;;7.33;1.57;;;;;;;;;;5055775;28;20402;-77
2022/02/20 06:05:09;;;;;;;3.07;1.50;;;;;;;;;;5055596;28;20406;-77
2022/02/20 06:07:35;;;;;;;2.50;1.40;;;;;;;;;;5055012;28;20465;-76
2022/02/20 06:10:02;;;;;;;3.13;1.90;;;;;;;;;;5055408;28;20393;-77
2022/02/20 06:12:28;;;;;;;2.17;1.37;;;;;;;;;;5055259;28;20913;-76
2022/02/20 06:14:54;;;;;;;4.57;1.50;;;;;;;;;;5055272;28;20405;-76
2022/02/20 06:17:20;;;;;;;2.33;1.43;;;;;;;;;;5055378;28;20432;-76
2022/02/20 06:19:46;;;;;;;1.87;1.30;;;;;;;;;;5055075;28;20401;-76
2022/02/20 06:22:12;;;;;;;6.80;1.43;;;;;;;;;;5055330;28;20807;-76
2022/02/20 06:24:38;;;;;;;3.57;2.23;;;;;;;;;;5055462;28;20408;-77
2022/02/20 06:27:05;;;;;;;3.80;1.23;;;;;;;;;;5054815;28;20441;-77
2022/02/20 06:29:32;;;;;;;6.90;1.83;;;;;;;;;;5054969;28;20413;-76
2022/02/20 06:31:58;;;;;;;3.50;1.53;;;;;;;;;;5054729;28;20421;-77
2022/02/20 06:34:24;;;;;;;3.60;1.37;;;;;;;;;;5055165;28;20531;-76
2022/02/20 06:36:50;;;;;;;4.07;1.97;;;;;;;;;;5054699;28;20429;-77
2022/02/20 06:39:17;;;;;;;6.77;1.77;;;;;;;;;;5054942;28;20464;-77
2022/02/20 06:41:43;;;;;;;1.80;1.10;;;;;;;;;;5055115;28;20464;-77
2022/02/20 06:44:09;;;;;;;3.17;1.33;;;;;;;;;;5064579;28;20420;-76
2022/02/20 06:46:35;;;;;;;3.33;1.50;;;;;;;;;;5055224;28;20433;-76
2022/02/20 06:49:01;;;;;;;1.90;1.30;;;;;;;;;;5054813;28;20453;-76
2022/02/20 06:51:28;;;;;;;2.60;1.43;;;;;;;;;;5055016;28;20416;-76
2022/02/20 06:53:54;;;;;;;2.57;1.40;;;;;;;;;;5055317;28;20398;-76
2022/02/20 06:56:20;;;;;;;3.00;1.60;;;;;;;;;;5054946;28;20422;-76
2022/02/20 06:58:47;;;;;;;2.20;1.87;;;;;;;;;;5054940;28;20412;-76
2022/02/20 07:01:13;;;;;;;5.47;1.40;;;;;;;;;;5055201;28;20404;-76
2022/02/20 07:03:39;;;;;;;4.17;1.40;;;;;;;;;;5055026;28;20919;-76
2022/02/20 07:06:05;;;;;;;5.60;1.43;;;;;;;;;;5055064;28;20452;-76
2022/02/20 07:08:32;;;;;;;4.20;1.60;;;;;;;;;;5055032;28;20445;-77
2022/02/20 07:10:58;;;;;;;3.00;1.57;;;;;;;;;;5055250;28;20829;-77
2022/02/20 07:13:24;;;;;;;3.00;1.40;;;;;;;;;;5056411;28;20772;-77
2022/02/20 07:15:50;;;;;;;6.43;1.60;;;;;;;;;;5055631;28;20460;-76
2022/02/20 07:18:16;;;;;;;2.40;1.97;;;;;;;;;;5055281;28;20464;-77
2022/02/20 07:20:43;;;;;;;5.63;1.77;;;;;;;;;;5054875;28;20401;-77
2022/02/20 07:23:09;;;;;;;2.30;1.33;;;;;;;;;;5054520;28;20755;-76
2022/02/20 07:25:36;;;;;;;5.30;1.77;;;;;;;;;;5054336;28;20402;-77
2022/02/20 07:28:02;;;;;;;5.20;1.53;;;;;;;;;;5054882;28;20438;-76
2022/02/20 07:30:28;;;;;;;3.00;1.53;;;;;;;;;;5055082;28;20497;-77
2022/02/20 07:32:56;;;;;;;11.80;1.63;;;;;;;;;;5055149;28;20408;-77
2022/02/20 07:35:22;;;;;;;1.77;1.23;;;;;;;;;;5055305;28;20907;-77
2022/02/20 07:37:48;;;;;;;4.67;2.13;;;;;;;;;;5054916;28;20500;-76
2022/02/20 07:40:15;;;;;;;2.60;1.40;;;;;;;;;;5054186;28;20420;-77
2022/02/20 07:42:41;;;;;;;4.33;1.30;;;;;;;;;;5054244;28;20441;-77
2022/02/20 07:45:08;;;;;;;2.33;1.30;;;;;;;;;;5054275;28;20401;-76
2022/02/20 07:47:46;;;;;;;5.53;1.67;;;;;;;;;;5054875;28;20454;-76
2022/02/20 07:50:12;;;;;;;2.53;1.23;;;;;;;;;;5053831;28;20421;-77
2022/02/20 07:52:38;;;;;;;3.00;1.47;;;;;;;;;;5054188;28;20424;-77
2022/02/20 07:55:04;;;;;;;6.40;1.40;;;;;;;;;;5054125;28;20459;-77
2022/02/20 07:57:30;;;;;;;3.60;1.70;;;;;;;;;;5053848;28;20430;-76
2022/02/20 07:59:56;;;;;;;2.00;1.33;;;;;;;;;;5054200;28;20413;-77
2022/02/20 08:02:23;;;;;;;6.60;1.90;;;;;;;;;;5052324;28;20508;-77
2022/02/20 08:04:49;;;;;;;2.17;1.30;;;;;;;;;;5052351;28;20474;-77
2022/02/20 08:07:15;;;;;;;3.00;1.30;;;;;;;;;;5053572;28;20907;-77
2022/02/20 08:09:41;;;;;;;3.47;1.60;;;;;;;;;;5053590;28;21000;-77
2022/02/20 08:12:07;;;;;;;6.87;1.90;;;;;;;;;;5053397;28;20928;-76
2022/02/20 08:14:33;;;;;;;3.37;1.43;;;;;;;;;;5057204;28;20901;-76
2022/02/20 08:16:59;;;;;;;2.00;1.10;;;;;;;;;;5058574;28;20495;-77
2022/02/20 08:19:25;;;;;;;2.57;1.70;;;;;;;;;;5054800;28;20455;-77
2022/02/20 08:21:51;;;;;;;2.03;1.40;;;;;;;;;;5054299;28;20475;-77
2022/02/20 08:24:17;;;;;;;1.93;1.10;;;;;;;;;;5054462;28;20409;-77
2022/02/20 08:26:45;;;;;;;4.03;1.60;;;;;;;;;;5053778;28;20992;-77
2022/02/20 08:29:11;;;;;;;3.80;1.23;;;;;;;;;;5053591;28;20449;-76
2022/02/20 08:31:37;;;;;;;4.43;1.47;;;;;;;;;;5055049;28;20481;-77
2022/02/20 08:34:03;;;;;;;2.20;1.70;;;;;;;;;;5054404;28;20398;-77
2022/02/20 08:36:29;;;;;;;1.90;1.30;;;;;;;;;;5054019;28;20445;-77
2022/02/20 08:38:55;;;;;;;2.30;1.30;;;;;;;;;;5054015;28;20771;-77
2022/02/20 08:41:22;;;;;;;4.20;1.30;;;;;;;;;;5053591;28;20825;-76
2022/02/20 08:43:48;;;;;;;2.03;1.30;;;;;;;;;;5053500;28;20443;-76
2022/02/20 08:46:14;;;;;;;5.93;1.93;;;;;;;;;;5054662;28;20509;-77
2022/02/20 08:48:40;;;;;;;3.80;1.40;;;;;;;;;;5053628;28;21033;-77
2022/02/20 08:51:07;;;;;;;4.33;1.40;;;;;;;;;;5053454;28;20948;-77
2022/02/20 08:53:35;;;;;;;4.43;1.60;;;;;;;;;;5053721;28;20905;-77
2022/02/20 08:56:01;;;;;;;3.10;1.87;;;;;;;;;;5057508;28;20821;-77
2022/02/20 08:58:27;;;;;;;2.80;1.50;;;;;;;;;;5057303;28;20941;-77
2022/02/20 09:00:55;;;;;;;2.50;1.50;;;;;;;;;;5057695;28;20433;-77
2022/02/20 09:03:21;;;;;;;2.97;1.40;;;;;;;;;;5056249;28;20445;-77
2022/02/20 09:05:47;;;;;;;2.77;1.50;;;;;;;;;;5055557;28;20425;-76
2022/02/20 09:08:13;;;;;;;2.80;1.63;;;;;;;;;;5056308;28;20544;-77
2022/02/20 09:10:40;;;;;;;1.93;1.33;;;;;;;;;;5057086;28;20421;-77
2022/02/20 09:13:06;;;;;;;2.80;1.53;;;;;;;;;;5054900;28;20886;-76
2022/02/20 09:15:33;;;;;;;2.60;1.30;;;;;;;;;;5056153;28;20429;-77
2022/02/20 09:17:59;;;;;;;4.27;2.20;;;;;;;;;;5056238;28;20901;-76
2022/02/20 09:20:25;;;;;;;3.67;1.87;;;;;;;;;;5056457;28;20512;-77
2022/02/20 09:22:54;;;;;;;3.00;1.30;;;;;;;;;;5055897;28;20441;-76
2022/02/20 09:25:20;;;;;;;4.30;1.60;;;;;;;;;;5056329;28;20456;-76
2022/02/20 09:27:46;;;;;;;2.73;1.50;;;;;;;;;;5049922;28;20464;-76
2022/02/20 09:30:12;;;;;;;1.80;1.10;;;;;;;;;;5056227;28;20444;-76
2022/02/20 09:32:39;;;;;;;7.40;1.33;;;;;;;;;;5055146;28;20406;-75
2022/02/20 09:35:05;;;;;;;3.00;1.10;;;;;;;;;;5056487;28;20777;-76
2022/02/20 09:37:31;;;;;;;3.47;1.47;;;;;;;;;;5056064;28;20424;-75
2022/02/20 09:39:57;;;;;;;1.77;1.40;;;;;;;;;;5055942;28;20398;-75
2022/02/20 09:42:23;;;;;;;3.90;1.53;;;;;;;;;;5056183;28;20779;-76
2022/02/20 09:44:49;;;;;;;2.33;1.40;;;;;;;;;;5055929;28;20480;-76
2022/02/20 09:47:16;;;;;;;2.73;1.57;;;;;;;;;;5055947;28;20775;-76
2022/02/20 09:49:45;;;;;;;2.50;1.20;;;;;;;;;;5056076;28;20761;-75
2022/02/20 09:52:11;;;;;;;3.00;1.70;;;;;;;;;;5055528;28;20394;-76
2022/02/20 09:54:38;;;;;;;2.53;1.13;;;;;;;;;;5055361;28;20794;-76
2022/02/20 09:57:04;;;;;;;5.30;1.37;;;;;;;;;;5055961;28;20906;-77
2022/02/20 09:59:30;;;;;;;4.13;1.20;;;;;;;;;;5055879;28;20939;-75
2022/02/20 10:02:03;;;;;;;2.67;1.50;;;;;;;;;;5055757;28;20737;-75
2022/02/20 10:04:42;;;;;;;4.20;1.20;;;;;;;;;;5055207;28;20394;-75
2022/02/20 10:07:27;;;;;;;3.80;1.40;;;;;;;;;;5054532;28;20417;-75
2022/02/20 10:09:53;;;;;;;3.07;1.40;;;;;;;;;;5055042;28;20447;-75
2022/02/20 10:12:20;;;;;;;6.20;1.33;;;;;;;;;;5055005;28;20928;-76
2022/02/20 10:14:46;;;;;;;2.23;1.63;;;;;;;;;;5055106;28;20406;-75
2022/02/20 10:17:13;;;;;;;4.10;1.20;;;;;;;;;;5055000;28;20450;-75
2022/02/20 10:19:58;;;;;;;3.00;1.30;;;;;;;;;;5054856;28;20397;-75
2022/02/20 10:22:27;;;;;;;5.83;1.27;;;;;;;;;;5055059;28;20402;-76
2022/02/20 10:25:06;;;;;;;2.67;1.10;;;;;;;;;;5054770;28;20406;-75
2022/02/20 10:27:32;;;;;;;4.80;1.13;;;;;;;;;;5054688;28;20488;-75
2022/02/20 10:30:14;;;;;;;5.00;1.07;;;;;;;;;;5053711;28;20412;-76
2022/02/20 10:32:41;;;;;;;3.10;1.13;;;;;;;;;;5053369;28;20788;-76
2022/02/20 10:35:11;;;;;;;2.03;1.27;;;;;;;;;;5054725;28;20408;-76
2022/02/20 10:37:37;;;;;;;2.27;1.40;;;;;;;;;;5054664;28;20430;-76
2022/02/20 10:40:22;;;;;;;2.83;1.20;;;;;;;;;;5055903;28;20815;-76
2022/02/20 10:42:48;;;;;;;3.53;1.27;;;;;;;;;;5055207;28;20468;-75
2022/02/20 10:45:43;;;;;;;1.80;1.30;;;;;;;;;;5056507;28;20455;-76
2022/02/20 10:48:16;;;;;;;3.00;1.20;;;;;;;;;;5041841;28;20456;-76
2022/02/20 10:50:43;;;;;;;2.60;1.20;;;;;;;;;;5054416;28;20447;-76
2022/02/20 10:53:19;;;;;;;3.87;1.60;;;;;;;;;;5054380;28;20489;-76
2022/02/20 10:55:47;;;;;;;2.50;1.50;;;;;;;;;;5054304;28;20382;-76
2022/02/20 10:58:24;;;;;;;5.10;1.20;;;;;;;;;;5054023;28;20415;-77
2022/02/20 11:00:57;;;;;;;2.67;1.40;;;;;;;;;;5053339;28;20386;-78
2022/02/20 11:03:27;;;;;;;2.57;1.40;;;;;;;;;;5052906;28;20421;-75
2022/02/20 11:05:54;;;;;;;2.90;1.30;;;;;;;;;;5054013;28;20478;-75
2022/02/20 11:08:22;;;;;;;1.77;1.20;;;;;;;;;;5052751;28;20452;-76
2022/02/20 11:10:48;;;;;;;3.30;1.23;;;;;;;;;;5054237;28;20551;-77
2022/02/20 11:13:15;;;;;;;3.20;1.43;;;;;;;;;;5054031;28;20398;-76
2022/02/20 11:15:42;;;;;;;3.60;1.20;;;;;;;;;;5054302;28;20424;-77
2022/02/20 11:18:14;;;;;;;4.43;1.40;;;;;;;;;;5053839;28;20405;-77
2022/02/20 11:20:41;;;;;;;2.17;1.00;;;;;;;;;;5053495;28;20428;-76
2022/02/20 11:23:07;;;;;;;4.13;1.27;;;;;;;;;;5055080;28;20406;-76
2022/02/20 11:25:35;;;;;;;4.03;1.50;;;;;;;;;;5054244;28;20406;-77
2022/02/20 11:28:05;;;;;;;3.37;1.37;;;;;;;;;;5087425;22;20493;-80
2022/02/20 11:30:34;;;;;;;2.17;1.10;;;;;;;;;;5046420;28;20413;-82
2022/02/20 11:33:06;;;;;;;1.90;1.10;;;;;;;;;;5039956;28;20390;-82
2022/02/20 11:35:33;;;;;;;2.63;1.20;;;;;;;;;;5040446;28;20414;-82
2022/02/20 11:38:07;;;;;;;3.20;1.13;;;;;;;;;;5055685;28;20461;-82
2022/02/20 11:40:49;;;;;;;2.90;1.30;;;;;;;;;;5040286;28;20397;-82
2022/02/20 11:43:16;;;;;;;2.27;1.20;;;;;;;;;;5057106;28;20499;-82
2022/02/20 11:46:11;;;;;;;2.80;1.30;;;;;;;;;;5043633;28;20405;-82
2022/02/20 11:48:40;;;;;;;2.37;1.07;;;;;;;;;;5037984;28;20496;-82
2022/02/20 11:51:17;;;;;;;4.30;1.27;;;;;;;;;;5055507;28;20419;-81
2022/02/20 11:53:44;;;;;;;3.57;1.50;;;;;;;;;;5040353;28;20463;-81
2022/02/20 11:56:12;;;;;;;2.63;1.50;;;;;;;;;;5038994;28;20465;-81
2022/02/20 11:58:39;;;;;;;4.63;1.60;;;;;;;;;;5039298;28;20610;-81
2022/02/20 12:01:09;;;;;;;3.73;1.30;;;;;;;;;;5056021;28;20414;-81
2022/02/20 12:03:44;;;;;;;3.00;1.30;;;;;;;;;;5039188;28;20437;-81
2022/02/20 12:06:10;;;;;;;4.10;1.20;;;;;;;;;;5054061;28;20421;-82
2022/02/20 12:08:37;;;;;;;1.70;0.90;;;;;;;;;;5038830;28;20450;-81
2022/02/20 12:11:25;;;;;;;2.47;1.00;;;;;;;;;;5054041;28;20411;-81
2022/02/20 12:13:57;;;;;;;1.93;1.00;;;;;;;;;;5053357;28;20407;-83
2022/02/20 12:16:23;;;;;;;1.47;0.90;;;;;;;;;;5053523;28;20422;-80
2022/02/20 12:19:09;;;;;;;1.70;1.10;;;;;;;;;;5053736;28;20418;-81
2022/02/20 12:21:55;;;;;;;1.80;1.27;;;;;;;;;;5053881;28;20409;-81
2022/02/20 12:24:23;;;;;;;1.80;1.10;;;;;;;;;;5053613;28;20964;-80
2022/02/20 12:27:00;;;;;;;2.57;1.40;;;;;;;;;;5053273;28;20426;-83
2022/02/20 12:29:39;;;;;;;2.97;1.10;;;;;;;;;;5056360;28;20451;-83
2022/02/20 12:32:29;;;;;;;2.20;1.27;;;;;;;;;;5062505;28;20414;-83
2022/02/20 12:35:11;;;;;;;3.73;1.00;;;;;;;;;;5050030;28;20403;-81
2022/02/20 12:37:47;;;;;;;2.77;1.33;;;;;;;;;;5041741;28;20426;-80
2022/02/20 12:40:20;;;;;;;2.07;1.10;;;;;;;;;;5042923;28;20853;-81
2022/02/20 12:42:47;;;;;;;2.17;1.33;;;;;;;;;;5057079;28;20414;-81
2022/02/20 12:45:18;;;;;;;4.90;1.37;;;;;;;;;;5057540;28;20413;-81
2022/02/20 12:47:47;;;;;;;2.53;1.57;;;;;;;;;;5042203;28;20801;-81
2022/02/20 12:50:14;;;;;;;3.40;1.00;;;;;;;;;;5058013;28;20453;-81
2022/02/20 12:52:43;;;;;;;2.63;1.30;;;;;;;;;;5042673;28;20402;-82
2022/02/20 12:55:14;;;;;;;5.33;1.27;;;;;;;;;;5046731;28;20405;-82
2022/02/20 12:57:40;;;;;;;2.50;1.20;;;;;;;;;;5058289;28;20430;-82
2022/02/20 13:00:14;;;;;;;1.63;1.03;;;;;;;;;;5042746;28;20412;-82
2022/02/20 13:02:40;;;;;;;2.60;1.03;;;;;;;;;;5059822;28;20420;-79
2022/02/20 13:05:09;;;;;;;3.50;1.23;;;;;;;;;;5045425;28;20932;-82
2022/02/20 13:07:43;;;;;;;2.87;1.20;;;;;;;;;;5059957;28;20480;-82
2022/02/20 13:10:19;;;;;;;3.03;1.60;;;;;;;;;;5042588;28;20406;-83
2022/02/20 13:12:52;;;;;;;1.87;1.10;;;;;;;;;;5042589;28;20536;-82
2022/02/20 13:15:18;;;;;;;3.07;1.37;;;;;;;;;;5057335;28;20414;-82
2022/02/20 13:17:45;;;;;;;2.17;1.20;;;;;;;;;;5058398;28;20430;-82
2022/02/20 13:20:26;;;;;;;2.00;0.90;;;;;;;;;;5058442;28;20822;-82
2022/02/20 13:22:55;;;;;;;2.60;1.10;;;;;;;;;;5058593;28;20407;-81
2022/02/20 13:25:22;;;;;;;3.00;1.10;;;;;;;;;;5061649;28;20470;-82
2022/02/20 13:27:50;;;;;;;3.60;1.20;;;;;;;;;;5050730;28;20467;-81
2022/02/20 13:30:42;;;;;;;3.50;1.50;;;;;;;;;;5060328;28;20898;-82
2022/02/20 13:33:09;;;;;;;2.50;1.10;;;;;;;;;;5038231;28;20414;-82
2022/02/20 13:35:36;;;;;;;1.90;1.13;;;;;;;;;;5041207;28;20399;-82
2022/02/20 13:38:04;;;;;;;1.70;1.17;;;;;;;;;;5041259;28;20842;-82
2022/02/20 13:40:30;;;;;;;2.50;1.97;;;;;;;;;;5055594;28;20410;-82
2022/02/20 13:43:00;;;;;;;2.63;1.20;;;;;;;;;;5040840;28;20490;-82
2022/02/20 13:45:29;;;;;;;2.07;1.03;;;;;;;;;;5040599;28;20403;-82
2022/02/20 13:47:55;;;;;;;1.80;1.03;;;;;;;;;;5040656;28;20512;-82
2022/02/20 13:50:22;;;;;;;2.57;1.17;;;;;;;;;;5040880;28;20407;-82
2022/02/20 13:52:48;;;;;;;2.40;1.37;;;;;;;;;;5055759;28;20422;-82
2022/02/20 13:55:27;;;;;;;2.10;1.30;;;;;;;;;;5056108;28;20914;-82
2022/02/20 13:57:54;;;;;;;2.53;1.10;;;;;;;;;;5040530;28;20808;-81
2022/02/20 14:00:22;;;;;;;4.57;1.17;;;;;;;;;;5056353;28;20407;-82
2022/02/20 14:02:48;;;;;;;3.80;1.43;;;;;;;;;;5040629;28;20907;-82
2022/02/20 14:05:23;;;;;;;2.23;1.20;;;;;;;;;;5056202;28;20445;-81
2022/02/20 14:07:49;;;;;;;2.50;1.20;;;;;;;;;;5040001;28;20469;-80
2022/02/20 14:10:16;;;;;;;2.43;1.00;;;;;;;;;;5040245;28;20402;-82
2022/02/20 14:12:46;;;;;;;2.73;0.90;;;;;;;;;;5055324;28;20407;-82
2022/02/20 14:15:14;;;;;;;2.30;1.20;;;;;;;;;;5039610;28;20386;-82
2022/02/20 14:17:53;;;;;;;2.60;1.07;;;;;;;;;;5039341;28;20480;-80
2022/02/20 14:20:21;;;;;;;1.87;1.13;;;;;;;;;;5053458;28;20829;-79
2022/02/20 14:22:47;;;;;;;1.60;1.00;;;;;;;;;;5038234;28;20410;-80
2022/02/20 14:25:15;;;;;;;2.00;1.07;;;;;;;;;;5052561;28;20414;-80
2022/02/20 14:27:42;;;;;;;1.50;1.00;;;;;;;;;;5037838;28;20481;-80
2022/02/20 14:30:09;;;;;;;1.83;0.97;;;;;;;;;;5053860;28;20785;-80
2022/02/20 14:32:36;;;;;;;1.40;0.80;;;;;;;;;;5039185;28;20394;-82
2022/02/20 14:35:05;;;;;;;1.60;0.93;;;;;;;;;;5055239;28;20402;-80
2022/02/20 14:37:37;;;;;;;1.97;1.07;;;;;;;;;;5038975;28;20422;-82
2022/02/20 14:40:05;;;;;;;2.53;0.90;;;;;;;;;;5039357;28;20406;-81
2022/02/20 14:42:31;;;;;;;4.50;1.77;;;;;;;;;;5039945;28;20425;-80
2022/02/20 14:44:57;;;;;;;1.87;1.10;;;;;;;;;;5056806;28;20407;-81
2022/02/20 14:47:23;;;;;;;5.20;1.30;;;;;;;;;;5042134;28;20454;-81